Time;durP1;ratioP1;P1;durP2;ratioP2;P2;SDS_P1;SDS_P2;PMS_P1;PMS_P2;Temp;Humidity;BMP_temperature;BMP_pressure;BME280_temperature;BME280_humidity;BME280_pressure;Samples;Min_cycle;Max_cycle;Signal;HPM_P1;HPM_P2
2021/11/29 00:01:11;;;;;;;11.40;3.05;;;;;;;12.37;79.67;94751.66;5096196;28;20074;-64
2021/11/29 00:03:37;;;;;;;16.17;4.55;;;;;;;12.43;80.93;94732.03;5096137;28;20445;-64
2021/11/29 00:06:02;;;;;;;19.73;4.50;;;;;;;12.41;80.81;94733.91;5096076;28;20068;-64
2021/11/29 00:08:28;;;;;;;17.95;6.57;;;;;;;12.40;80.96;94759.28;5096040;28;20024;-60
2021/11/29 00:10:54;;;;;;;17.45;4.45;;;;;;;12.41;81.49;94778.50;5096020;28;20385;-64
2021/11/29 00:13:20;;;;;;;13.05;5.20;;;;;;;12.41;81.67;94773.25;5096038;28;20469;-63
2021/11/29 00:15:45;;;;;;;15.18;5.18;;;;;;;12.44;81.64;94755.53;5095917;28;20036;-66
2021/11/29 00:18:11;;;;;;;19.83;5.03;;;;;;;12.50;82.35;94762.91;5095712;28;20039;-66
2021/11/29 00:20:36;;;;;;;21.10;5.53;;;;;;;12.53;82.15;94754.00;5095596;28;20097;-65
2021/11/29 00:23:03;;;;;;;20.15;5.15;;;;;;;12.57;82.08;94757.22;5095644;28;20466;-63
2021/11/29 00:25:29;;;;;;;19.17;5.60;;;;;;;12.66;82.17;94753.91;5095710;28;20036;-63
2021/11/29 00:27:55;;;;;;;19.05;4.97;;;;;;;12.69;81.92;94753.69;5095674;28;20470;-67
2021/11/29 00:30:21;;;;;;;14.55;5.22;;;;;;;12.80;82.04;94720.56;5095634;28;20048;-64
2021/11/29 00:32:46;;;;;;;17.67;5.82;;;;;;;12.83;81.68;94708.06;5095535;28;20039;-65
2021/11/29 00:35:12;;;;;;;19.25;4.72;;;;;;;12.97;81.60;94719.25;5095553;28;20101;-68
2021/11/29 00:37:38;;;;;;;23.25;4.57;;;;;;;13.02;81.14;94723.22;5094102;28;20020;-67
2021/11/29 00:40:06;;;;;;;17.75;5.47;;;;;;;13.11;80.77;94713.78;5095452;28;20378;-68
2021/11/29 00:42:32;;;;;;;14.57;5.38;;;;;;;13.17;80.49;94724.75;5095283;28;20040;-65
2021/11/29 00:44:58;;;;;;;21.58;5.82;;;;;;;13.18;80.24;94727.25;5094270;28;20063;-65
2021/11/29 00:47:23;;;;;;;19.13;6.43;;;;;;;13.27;79.79;94738.84;5095201;28;20027;-65
2021/11/29 00:49:49;;;;;;;19.10;5.05;;;;;;;13.32;79.56;94723.56;5095182;28;20017;-64
2021/11/29 00:52:14;;;;;;;21.98;5.78;;;;;;;13.37;79.10;94718.78;5095180;28;20024;-63
2021/11/29 00:54:40;;;;;;;22.83;5.00;;;;;;;13.41;78.76;94719.38;5095049;28;20028;-65
2021/11/29 00:57:05;;;;;;;21.77;5.85;;;;;;;13.39;78.67;94716.03;5094994;28;20032;-65
2021/11/29 00:59:31;;;;;;;18.75;5.22;;;;;;;13.38;78.65;94704.72;5095022;28;20028;-60
2021/11/29 01:01:57;;;;;;;30.02;5.47;;;;;;;13.36;79.38;94705.78;5094975;28;20050;-64
2021/11/29 01:04:22;;;;;;;26.00;5.97;;;;;;;13.36;78.75;94690.03;5094918;28;20032;-66
2021/11/29 01:06:48;;;;;;;29.88;6.38;;;;;;;13.34;78.71;94687.50;5094975;28;20028;-66
2021/11/29 01:09:14;;;;;;;18.35;6.20;;;;;;;13.37;78.59;94673.34;5094844;28;20474;-63
2021/11/29 01:11:39;;;;;;;22.23;6.03;;;;;;;13.36;78.35;94671.63;5094690;28;20472;-65
2021/11/29 01:14:05;;;;;;;24.45;5.80;;;;;;;13.41;78.02;94674.75;5094771;28;20077;-67
2021/11/29 01:16:31;;;;;;;24.08;6.78;;;;;;;13.42;77.84;94663.28;5094716;28;20020;-64
2021/11/29 01:18:57;;;;;;;19.80;5.80;;;;;;;13.42;77.76;94663.28;5094613;28;20378;-60
2021/11/29 01:21:22;;;;;;;23.00;5.53;;;;;;;13.43;77.45;94651.84;5094314;28;20048;-64
2021/11/29 01:23:48;;;;;;;19.13;6.00;;;;;;;13.42;77.46;94662.47;5093243;28;20027;-67
2021/11/29 01:26:14;;;;;;;20.45;5.75;;;;;;;13.48;77.04;94649.66;5094400;28;20031;-66
2021/11/29 01:28:40;;;;;;;21.65;5.85;;;;;;;13.47;77.47;94641.91;5094448;28;20042;-65
2021/11/29 01:31:07;;;;;;;35.05;7.10;;;;;;;13.47;77.06;94644.53;5094355;28;20032;-60
2021/11/29 01:33:33;;;;;;;34.40;7.07;;;;;;;13.50;77.12;94653.06;5094501;28;20024;-64
2021/11/29 01:35:59;;;;;;;31.90;6.78;;;;;;;13.52;77.15;94650.31;5094223;28;20107;-67
2021/11/29 01:38:24;;;;;;;30.92;6.80;;;;;;;13.45;77.25;94628.91;5094258;28;20739;-66
2021/11/29 01:40:50;;;;;;;39.22;7.57;;;;;;;13.44;77.37;94632.50;5094306;28;20397;-65
2021/11/29 01:43:19;;;;;;;31.83;7.50;;;;;;;13.48;77.37;94620.78;5094464;28;20462;-67
2021/11/29 01:45:47;;;;;;;34.88;7.75;;;;;;;13.48;77.21;94631.28;5094297;28;20109;-63
2021/11/29 01:48:13;;;;;;;31.48;7.32;;;;;;;13.51;77.20;94622.34;5093723;28;20060;-63
2021/11/29 01:50:42;;;;;;;26.17;7.15;;;;;;;13.52;77.02;94629.28;5094017;28;20382;-67
2021/11/29 01:53:09;;;;;;;44.53;8.32;;;;;;;13.47;77.50;94620.91;5094013;28;20377;-64
2021/11/29 01:55:36;;;;;;;31.10;6.80;;;;;;;13.53;77.23;94615.19;5094011;28;20024;-65
2021/11/29 01:58:03;;;;;;;37.03;8.23;;;;;;;13.57;77.19;94611.34;5094075;28;20028;-68
2021/11/29 02:00:32;;;;;;;24.63;7.03;;;;;;;13.56;77.34;94607.06;5093894;28;20438;-63
2021/11/29 02:02:58;;;;;;;36.70;7.72;;;;;;;13.60;77.03;94594.50;5093801;28;20035;-64
2021/11/29 02:05:25;;;;;;;31.13;7.20;;;;;;;13.61;77.17;94578.63;5093720;28;20077;-66
2021/11/29 02:07:52;;;;;;;32.88;7.00;;;;;;;13.57;77.28;94577.22;5093815;28;20077;-66
2021/11/29 02:10:20;;;;;;;32.05;6.97;;;;;;;13.64;77.09;94567.88;5093768;28;20470;-64
2021/11/29 02:12:46;;;;;;;35.60;8.20;;;;;;;13.70;76.78;94563.91;5093587;28;20032;-68
2021/11/29 02:15:14;;;;;;;34.00;6.90;;;;;;;13.71;76.87;94564.75;5093608;28;20493;-65
2021/11/29 02:17:41;;;;;;;38.15;7.50;;;;;;;13.67;77.03;94579.09;5093460;28;20107;-67
2021/11/29 02:20:09;;;;;;;32.05;7.88;;;;;;;13.67;77.33;94581.72;5093364;28;20497;-65
2021/11/29 02:22:35;;;;;;;28.45;7.80;;;;;;;13.75;76.98;94567.00;5092304;28;20442;-67
2021/11/29 02:25:00;;;;;;;49.08;9.45;;;;;;;13.77;76.74;94548.47;5093439;28;20111;-64
2021/11/29 02:27:26;;;;;;;41.33;7.68;;;;;;;13.79;76.82;94546.56;5093502;28;20020;-64
2021/11/29 02:29:54;;;;;;;34.28;8.65;;;;;;;13.74;77.20;94549.56;5093436;28;20020;-64
2021/11/29 02:32:20;;;;;;;37.25;8.13;;;;;;;13.77;77.14;94535.34;5093440;28;20215;-68
2021/11/29 02:34:47;;;;;;;35.25;8.20;;;;;;;13.81;77.43;94522.78;5093308;28;20026;-64
2021/11/29 02:37:12;;;;;;;36.03;6.90;;;;;;;13.88;77.13;94521.31;5093171;28;20027;-64
2021/11/29 02:39:41;;;;;;;47.10;9.13;;;;;;;13.86;77.20;94523.22;5093297;28;20453;-63
2021/11/29 02:42:10;;;;;;;34.50;8.23;;;;;;;13.83;77.43;94513.81;5093368;28;20035;-64
2021/11/29 02:44:36;;;;;;;24.10;7.10;;;;;;;13.78;77.70;94518.59;5093336;28;20111;-61
2021/11/29 02:47:03;;;;;;;31.75;7.75;;;;;;;13.81;77.99;94513.09;5093223;28;20039;-64
2021/11/29 02:49:29;;;;;;;36.72;8.15;;;;;;;13.81;78.03;94510.47;5093083;28;20128;-65
2021/11/29 02:52:06;;;;;;;29.83;8.43;;;;;;;13.83;78.08;94507.72;5093125;28;20030;-63
2021/11/29 02:54:35;;;;;;;26.95;6.90;;;;;;;13.89;77.83;94513.31;5093206;28;20024;-65
2021/11/29 02:57:09;;;;;;;32.33;7.43;;;;;;;13.95;77.74;94508.47;5093008;28;20422;-68
2021/11/29 02:59:37;;;;;;;27.02;7.47;;;;;;;14.03;77.63;94504.25;5093152;28;20083;-64
2021/11/29 03:02:06;;;;;;;42.13;9.05;;;;;;;14.02;77.45;94502.59;5097380;28;20024;-67
2021/11/29 03:04:33;;;;;;;37.15;6.45;;;;;;;14.03;77.76;94490.28;5097375;28;20058;-62
2021/11/29 03:06:59;;;;;;;36.25;7.45;;;;;;;14.05;77.81;94484.91;5097338;28;20032;-66
2021/11/29 03:09:26;;;;;;;24.48;7.07;;;;;;;14.05;77.76;94477.03;5097273;28;20024;-64
2021/11/29 03:11:53;;;;;;;33.00;7.38;;;;;;;14.03;77.91;94470.06;5097076;28;20111;-65
2021/11/29 03:14:19;;;;;;;32.38;8.20;;;;;;;14.00;78.41;94462.44;5096975;28;20351;-65
2021/11/29 03:16:45;;;;;;;33.10;7.20;;;;;;;14.02;78.48;94467.56;5096765;28;20020;-65
2021/11/29 03:19:11;;;;;;;33.50;7.55;;;;;;;14.02;78.54;94459.69;5097022;28;20036;-66
2021/11/29 03:21:37;;;;;;;34.78;8.20;;;;;;;13.98;79.01;94458.28;5096757;28;20046;-63
2021/11/29 03:24:06;;;;;;;30.88;8.35;;;;;;;13.93;79.18;94444.72;5096875;28;20385;-61
2021/11/29 03:26:33;;;;;;;33.17;8.25;;;;;;;13.88;79.52;94430.16;5096726;28;20035;-66
2021/11/29 03:29:10;;;;;;;29.27;7.63;;;;;;;13.88;79.27;94435.41;5096721;28;20028;-65
2021/11/29 03:31:37;;;;;;;27.05;7.43;;;;;;;13.84;79.72;94439.28;5096730;28;20460;-64
2021/11/29 03:34:06;;;;;;;32.70;8.38;;;;;;;13.94;79.74;94431.44;5096643;28;20051;-66
2021/11/29 03:36:37;;;;;;;28.02;6.93;;;;;;;13.96;79.64;94421.63;5096584;28;20024;-67
2021/11/29 03:39:06;;;;;;;28.30;7.43;;;;;;;13.90;79.63;94416.91;5096627;28;20103;-61
2021/11/29 03:41:31;;;;;;;36.75;7.28;;;;;;;14.01;79.40;94419.47;5096466;28;20077;-65
2021/11/29 03:43:57;;;;;;;27.38;7.07;;;;;;;14.03;79.10;94411.44;5096512;28;20016;-68
2021/11/29 03:46:23;;;;;;;37.92;7.88;;;;;;;13.99;79.24;94418.75;5096408;28;20024;-66
2021/11/29 03:48:49;;;;;;;41.75;8.63;;;;;;;14.00;79.47;94407.25;5096461;28;20028;-63
2021/11/29 03:51:15;;;;;;;42.03;9.23;;;;;;;14.01;79.56;94413.34;5096483;28;20041;-66
2021/11/29 03:53:40;;;;;;;52.38;8.90;;;;;;;13.99;79.70;94420.53;5096290;28;20546;-66
2021/11/29 03:56:06;;;;;;;44.00;9.40;;;;;;;13.96;79.71;94405.03;5096155;28;20032;-68
2021/11/29 03:58:32;;;;;;;52.55;8.93;;;;;;;13.90;80.37;94415.09;5096206;28;20489;-64
2021/11/29 04:00:58;;;;;;;36.38;8.27;;;;;;;13.91;80.12;94405.44;5096279;28;20024;-64
2021/11/29 04:03:24;;;;;;;52.40;9.75;;;;;;;13.89;80.29;94402.94;5096153;28;20090;-64
2021/11/29 04:05:50;;;;;;;56.10;10.75;;;;;;;13.90;80.41;94394.09;5095968;28;20020;-64
2021/11/29 04:08:16;;;;;;;58.63;10.68;;;;;;;13.85;80.33;94393.63;5096075;28;20020;-68
2021/11/29 04:10:42;;;;;;;60.63;11.65;;;;;;;13.85;80.66;94392.81;5095660;28;20012;-66
2021/11/29 04:13:07;;;;;;;59.63;11.73;;;;;;;13.89;80.59;94392.44;5095999;28;20035;-61
2021/11/29 04:15:33;;;;;;;66.25;10.98;;;;;;;13.89;80.49;94389.81;5095877;28;20377;-65
2021/11/29 04:17:59;;;;;;;49.38;10.35;;;;;;;13.85;80.62;94377.06;5095713;28;20563;-65
2021/11/29 04:20:25;;;;;;;59.05;11.07;;;;;;;13.88;80.37;94369.72;5095495;28;20119;-62
2021/11/29 04:22:50;;;;;;;57.25;11.52;;;;;;;13.82;80.76;94383.38;5095778;28;20020;-66
2021/11/29 04:25:23;;;;;;;73.50;12.60;;;;;;;13.80;80.92;94387.97;5095839;28;20031;-66
2021/11/29 04:27:49;;;;;;;56.95;12.43;;;;;;;13.78;81.13;94374.09;5095704;28;20031;-63
2021/11/29 04:30:19;;;;;;;63.42;10.73;;;;;;;13.84;80.74;94373.59;5095594;28;20048;-64
2021/11/29 04:32:50;;;;;;;72.43;11.55;;;;;;;13.82;80.80;94365.00;5095630;28;20111;-66
2021/11/29 04:35:16;;;;;;;70.25;13.00;;;;;;;13.86;80.78;94362.94;5095614;28;20089;-63
2021/11/29 04:37:42;;;;;;;45.85;11.57;;;;;;;13.88;80.85;94364.47;5095570;28;21202;-62
2021/11/29 04:40:09;;;;;;;55.17;11.18;;;;;;;13.93;80.64;94348.31;5095399;28;20078;-68
2021/11/29 04:42:34;;;;;;;50.42;10.38;;;;;;;13.92;80.59;94358.94;5095356;28;20043;-67
2021/11/29 04:45:01;;;;;;;48.42;10.85;;;;;;;13.92;80.66;94361.59;5095357;28;20469;-63
2021/11/29 04:47:26;;;;;;;46.25;10.55;;;;;;;13.93;80.55;94347.50;5095242;28;20027;-66
2021/11/29 04:49:52;;;;;;;40.05;11.05;;;;;;;13.93;80.48;94356.19;5095401;28;20437;-66
2021/11/29 04:52:18;;;;;;;52.30;9.82;;;;;;;13.85;80.91;94343.72;5095258;28;20031;-65
2021/11/29 04:54:44;;;;;;;52.80;10.75;;;;;;;13.89;80.96;94349.53;5095086;28;20036;-67
2021/11/29 04:57:10;;;;;;;52.13;10.98;;;;;;;13.82;81.00;94354.47;5095018;28;20108;-64
2021/11/29 04:59:36;;;;;;;73.05;10.77;;;;;;;13.78;81.35;94353.09;5095050;28;20065;-65
2021/11/29 05:02:02;;;;;;;56.08;11.70;;;;;;;13.74;81.51;94343.81;5094984;28;20023;-69
2021/11/29 05:04:29;;;;;;;71.68;11.02;;;;;;;13.73;81.40;94345.59;5094870;28;20104;-64
2021/11/29 05:06:55;;;;;;;55.30;12.10;;;;;;;13.73;81.25;94348.22;5094845;28;20084;-65
2021/11/29 05:09:21;;;;;;;59.38;12.00;;;;;;;13.73;81.47;94345.59;5094980;28;20447;-69
2021/11/29 05:11:47;;;;;;;56.75;10.90;;;;;;;13.65;81.71;94358.56;5094873;28;20105;-64
2021/11/29 05:14:13;;;;;;;56.35;11.60;;;;;;;13.67;81.84;94356.66;5094717;28;20122;-64
2021/11/29 05:16:39;;;;;;;48.53;11.40;;;;;;;13.67;81.91;94356.66;5094571;28;20028;-63
2021/11/29 05:19:06;;;;;;;64.72;10.25;;;;;;;13.75;81.79;94362.06;5093608;28;20031;-67
2021/11/29 05:21:33;;;;;;;75.43;12.98;;;;;;;13.73;81.73;94356.09;5094298;28;20508;-64
2021/11/29 05:23:58;;;;;;;61.40;12.88;;;;;;;13.70;81.78;94358.19;5093832;28;20382;-69
2021/11/29 05:26:25;;;;;;;72.80;12.07;;;;;;;13.74;81.52;94357.78;5094580;28;20039;-65
2021/11/29 05:28:54;;;;;;;79.13;16.30;;;;;;;13.67;81.79;94356.66;5094467;28;20028;-63
2021/11/29 05:31:21;;;;;;;78.55;13.45;;;;;;;13.63;81.93;94360.47;5094418;28;20102;-67
2021/11/29 05:33:48;;;;;;;74.10;13.60;;;;;;;13.64;82.03;94352.47;5094543;28;20359;-65
2021/11/29 05:36:15;;;;;;;65.63;12.25;;;;;;;13.63;81.77;94342.94;5094386;28;20020;-64
2021/11/29 05:38:40;;;;;;;57.13;13.45;;;;;;;13.68;81.77;94347.81;5094302;28;20032;-65
2021/11/29 05:41:06;;;;;;;73.28;13.00;;;;;;;13.69;81.50;94353.91;5094187;28;20119;-60
2021/11/29 05:43:32;;;;;;;76.90;13.77;;;;;;;13.69;81.76;94351.28;5094223;28;20051;-63
2021/11/29 05:45:59;;;;;;;71.05;13.73;;;;;;;13.72;81.31;94348.34;5094138;28;20481;-67
2021/11/29 05:48:26;;;;;;;80.43;14.48;;;;;;;13.73;81.42;94348.22;5094160;28;20020;-63
2021/11/29 05:50:52;;;;;;;69.25;13.50;;;;;;;13.78;81.06;94342.59;5094107;28;20103;-66
2021/11/29 05:53:17;;;;;;;80.90;13.30;;;;;;;13.76;81.37;94347.16;5094039;28;20490;-62
2021/11/29 05:55:43;;;;;;;69.05;13.52;;;;;;;13.82;81.05;94333.47;5093812;28;20020;-66
2021/11/29 05:58:09;;;;;;;62.42;12.95;;;;;;;13.92;80.76;94335.31;5093941;28;20389;-64
2021/11/29 06:00:35;;;;;;;77.10;13.30;;;;;;;13.93;80.60;94329.91;5093821;28;20355;-66
2021/11/29 06:03:01;;;;;;;71.82;13.65;;;;;;;13.99;80.45;94336.44;5093915;28;20470;-66
2021/11/29 06:05:26;;;;;;;71.95;13.30;;;;;;;14.07;80.06;94360.28;5093903;28;20030;-64
2021/11/29 06:07:52;;;;;;;86.60;15.95;;;;;;;14.17;79.71;94339.25;5093928;28;20424;-66
2021/11/29 06:10:18;;;;;;;66.10;14.52;;;;;;;14.35;78.97;94352.59;5093636;28;20020;-66
2021/11/29 06:12:45;;;;;;;71.22;13.48;;;;;;;14.46;78.65;94341.13;5093766;28;20198;-67
2021/11/29 06:15:12;;;;;;;80.90;13.27;;;;;;;14.70;77.50;94345.16;5093748;28;20035;-62
2021/11/29 06:17:37;;;;;;;71.03;13.57;;;;;;;14.91;76.79;94347.69;5093483;28;20028;-67
2021/11/29 06:20:05;;;;;;;108.50;31.75;;;;;;;15.18;75.80;94340.06;5093287;28;20405;-66
2021/11/29 06:22:31;;;;;;;82.00;15.02;;;;;;;15.40;74.59;94341.53;5093643;28;20031;-64
2021/11/29 06:24:57;;;;;;;78.13;13.27;;;;;;;15.57;74.27;94333.88;5093543;28;20020;-63
2021/11/29 06:27:23;;;;;;;79.57;14.02;;;;;;;15.83;73.16;94327.94;5093499;28;20442;-64
2021/11/29 06:29:49;;;;;;;59.65;12.80;;;;;;;16.17;71.75;94332.69;5093445;28;20058;-63
2021/11/29 06:32:15;;;;;;;76.40;13.60;;;;;;;16.47;70.81;94342.25;5093394;28;20020;-66
2021/11/29 06:34:40;;;;;;;75.95;13.95;;;;;;;16.72;69.51;94342.47;5093245;28;20512;-64
2021/11/29 06:37:07;;;;;;;74.88;13.80;;;;;;;16.99;68.85;94343.38;5093252;28;20028;-64
2021/11/29 06:39:35;;;;;;;70.75;13.23;;;;;;;17.24;67.57;94339.16;5093423;28;20525;-61
2021/11/29 06:42:01;;;;;;;86.75;14.38;;;;;;;17.41;67.05;94342.78;5093249;28;20020;-68
2021/11/29 06:44:27;;;;;;;63.90;13.07;;;;;;;17.78;65.76;94354.06;5093248;28;20020;-64
2021/11/29 06:46:53;;;;;;;74.78;14.43;;;;;;;18.01;64.74;94342.94;5093184;28;20393;-61
2021/11/29 06:49:19;;;;;;;77.15;13.52;;;;;;;18.54;63.27;94336.69;5093219;28;20031;-61
2021/11/29 06:51:45;;;;;;;77.22;17.33;;;;;;;18.78;62.06;94341.22;5093191;28;20024;-64
2021/11/29 06:54:11;;;;;;;67.03;12.80;;;;;;;19.19;60.38;94335.16;5093205;28;20036;-68
2021/11/29 06:56:36;;;;;;;76.68;12.82;;;;;;;19.45;59.75;94335.97;5093016;28;20028;-64
2021/11/29 06:59:02;;;;;;;64.97;12.90;;;;;;;20.05;57.78;94338.38;5093109;28;20017;-64
2021/11/29 07:01:29;;;;;;;65.85;13.18;;;;;;;20.49;56.66;94349.44;5093029;28;20020;-64
2021/11/29 07:03:54;;;;;;;67.55;12.82;;;;;;;20.73;55.16;94345.84;5093121;28;20034;-68
2021/11/29 07:06:20;;;;;;;61.78;12.30;;;;;;;21.21;54.25;94345.72;5093064;28;20031;-65
2021/11/29 07:08:46;;;;;;;83.10;13.45;;;;;;;21.79;51.85;94357.69;5092948;28;20050;-66
2021/11/29 07:11:13;;;;;;;69.00;13.93;;;;;;;22.15;50.83;94360.66;5092963;28;20024;-65
2021/11/29 07:13:39;;;;;;;68.80;13.27;;;;;;;21.88;50.98;94370.94;5092863;28;20078;-62
2021/11/29 07:16:06;;;;;;;69.40;14.10;;;;;;;22.17;50.05;94367.44;5092976;28;20036;-63
2021/11/29 07:18:31;;;;;;;76.15;12.02;;;;;;;22.84;48.92;94374.63;5092935;28;20040;-64
2021/11/29 07:20:59;;;;;;;58.70;11.63;;;;;;;23.64;45.81;94371.13;5092693;28;20494;-67
2021/11/29 07:23:24;;;;;;;70.60;13.45;;;;;;;23.80;45.52;94364.69;5092802;28;20059;-64
2021/11/29 07:25:51;;;;;;;66.00;12.20;;;;;;;24.42;44.51;94366.72;5092915;28;20107;-62
2021/11/29 07:28:16;;;;;;;58.38;10.40;;;;;;;24.43;43.90;94375.53;5092929;28;20024;-63
2021/11/29 07:30:42;;;;;;;62.90;11.65;;;;;;;24.30;43.63;94366.47;5092741;28;20020;-63
2021/11/29 07:33:08;;;;;;;57.10;11.27;;;;;;;23.39;45.03;94360.03;5092785;28;20024;-65
2021/11/29 07:35:34;;;;;;;69.07;12.93;;;;;;;22.45;47.62;94356.13;5092890;28;20089;-66
2021/11/29 07:38:00;;;;;;;69.88;12.57;;;;;;;22.70;47.68;94363.81;5092576;28;20107;-66
2021/11/29 07:40:31;;;;;;;56.78;10.73;;;;;;;23.60;45.59;94359.19;5092718;28;20439;-66
2021/11/29 07:43:04;;;;;;;51.58;11.05;;;;;;;24.71;43.21;94362.09;5092675;28;20032;-63
2021/11/29 07:45:31;;;;;;;64.63;10.60;;;;;;;25.05;41.66;94351.56;5092738;28;20123;-64
2021/11/29 07:47:57;;;;;;;60.28;10.35;;;;;;;25.52;40.65;94358.00;5096444;28;20107;-65
2021/11/29 07:50:24;;;;;;;57.33;10.15;;;;;;;26.36;38.85;94357.50;5096432;28;20103;-61
2021/11/29 07:52:50;;;;;;;54.05;10.40;;;;;;;25.19;39.92;94356.94;5096325;28;20023;-67
2021/11/29 07:55:21;;;;;;;55.80;10.50;;;;;;;23.93;42.25;94353.25;5096242;28;20115;-67
2021/11/29 07:57:47;;;;;;;52.33;10.32;;;;;;;24.67;41.23;94358.19;5096226;28;20429;-63
2021/11/29 08:00:20;;;;;;;49.05;10.07;;;;;;;25.91;39.35;94350.97;5096186;28;20103;-65
2021/11/29 08:02:48;;;;;;;54.00;9.20;;;;;;;26.86;37.24;94348.03;5096242;28;20035;-64
2021/11/29 08:05:14;;;;;;;46.10;10.85;;;;;;;27.83;35.18;94354.25;5096135;28;20470;-65
2021/11/29 08:07:40;;;;;;;61.40;12.93;;;;;;;28.85;33.75;94353.19;5096352;28;20074;-67
2021/11/29 08:10:06;;;;;;;54.60;10.88;;;;;;;28.59;33.52;94358.66;5096012;28;20466;-68
2021/11/29 08:12:32;;;;;;;42.13;9.93;;;;;;;28.22;33.71;94364.00;5095892;28;20023;-67
2021/11/29 08:14:58;;;;;;;50.15;9.38;;;;;;;28.63;33.16;94353.66;5095935;28;20024;-66
2021/11/29 08:17:23;;;;;;;45.58;9.65;;;;;;;27.08;34.43;94361.97;5095840;28;20070;-66
2021/11/29 08:19:49;;;;;;;50.03;10.43;;;;;;;25.39;38.05;94367.63;5095599;28;20024;-64
2021/11/29 08:22:16;;;;;;;44.13;8.65;;;;;;;25.46;38.56;94357.75;5095988;28;20027;-65
2021/11/29 08:24:42;;;;;;;46.38;9.57;;;;;;;26.06;37.64;94357.97;5095733;28;20028;-66
2021/11/29 08:27:08;;;;;;;61.72;9.85;;;;;;;25.25;38.73;94358.75;5095660;28;20074;-64
2021/11/29 08:29:34;;;;;;;51.50;10.40;;;;;;;23.69;41.50;94363.34;5095679;28;20038;-69
2021/11/29 08:32:00;;;;;;;45.78;8.63;;;;;;;22.69;43.89;94378.16;5095616;28;20527;-67
2021/11/29 08:34:26;;;;;;;53.63;8.95;;;;;;;22.09;46.03;94371.03;5095603;28;20063;-63
2021/11/29 08:36:52;;;;;;;49.45;10.07;;;;;;;21.98;47.01;94384.78;5095379;28;20086;-65
2021/11/29 08:39:18;;;;;;;56.70;9.93;;;;;;;21.30;47.56;94378.38;5095441;28;20017;-68
2021/11/29 08:41:44;;;;;;;61.63;9.73;;;;;;;20.96;49.17;94380.41;5095629;28;20043;-69
2021/11/29 08:44:11;;;;;;;51.17;10.75;;;;;;;20.64;49.85;94384.91;5095449;28;20026;-68
2021/11/29 08:46:38;;;;;;;33.42;8.43;;;;;;;20.31;51.06;94395.63;5095356;28;20055;-66
2021/11/29 08:49:04;;;;;;;43.78;9.10;;;;;;;20.11;51.91;94398.72;5095223;28;20024;-64
2021/11/29 08:51:31;;;;;;;35.05;7.50;;;;;;;19.89;51.49;94386.94;5095242;28;20123;-64
2021/11/29 08:53:57;;;;;;;30.48;6.68;;;;;;;19.70;52.48;94381.00;5095222;28;20047;-64
2021/11/29 08:56:23;;;;;;;28.92;6.90;;;;;;;19.40;52.81;94368.28;5095042;28;20385;-67
2021/11/29 08:58:49;;;;;;;37.38;7.53;;;;;;;19.40;53.11;94367.44;5093900;28;20024;-62
2021/11/29 09:01:15;;;;;;;36.97;7.22;;;;;;;19.42;52.92;94376.88;5095124;28;20024;-68
2021/11/29 09:03:41;;;;;;;25.23;5.90;;;;;;;19.34;52.23;94360.16;5094900;28;20023;-66
2021/11/29 09:06:07;;;;;;;32.13;6.47;;;;;;;19.41;52.18;94366.44;5094999;28;20077;-65
2021/11/29 09:08:33;;;;;;;23.40;6.30;;;;;;;19.67;52.25;94360.97;5093795;28;20023;-64
2021/11/29 09:10:59;;;;;;;22.08;5.50;;;;;;;19.99;50.55;94369.03;5094839;28;20028;-63
2021/11/29 09:13:30;;;;;;;27.48;5.88;;;;;;;20.09;49.71;94366.22;5094753;28;20055;-62
2021/11/29 09:16:00;;;;;;;26.70;5.72;;;;;;;20.00;49.80;94345.97;5094752;28;20081;-68
2021/11/29 09:18:27;;;;;;;26.80;5.60;;;;;;;19.88;50.43;94356.13;5094840;28;20036;-63
2021/11/29 09:20:52;;;;;;;14.25;4.88;;;;;;;19.72;49.85;94344.56;5094547;28;20058;-65
2021/11/29 09:23:20;;;;;;;21.65;5.07;;;;;;;19.53;51.74;94335.97;5094742;28;20458;-69
2021/11/29 09:25:47;;;;;;;26.10;6.30;;;;;;;19.17;52.82;94342.44;5094676;28;20033;-67
2021/11/29 09:28:14;;;;;;;26.15;5.32;;;;;;;18.82;53.60;94353.13;5094472;28;20016;-60
2021/11/29 09:30:42;;;;;;;30.40;6.00;;;;;;;18.70;54.77;94354.44;5094550;28;20154;-68
2021/11/29 09:33:08;;;;;;;31.10;6.63;;;;;;;18.48;56.37;94372.56;5094459;28;20048;-64
2021/11/29 09:35:35;;;;;;;23.55;6.75;;;;;;;18.24;57.57;94360.91;5094388;28;20012;-65
2021/11/29 09:38:01;;;;;;;33.63;7.38;;;;;;;18.01;58.79;94377.34;5094097;28;20482;-66
2021/11/29 09:40:33;;;;;;;30.02;6.35;;;;;;;17.64;60.15;94392.47;5094300;28;20020;-63
2021/11/29 09:43:09;;;;;;;18.75;4.07;;;;;;;17.11;58.58;94412.69;5094272;28;20056;-67
2021/11/29 09:45:36;;;;;;;14.70;3.00;;;;;;;16.41;58.34;94414.91;5094197;28;20697;-63
2021/11/29 09:48:02;;;;;;;10.65;1.98;;;;;;;15.71;58.22;94424.81;5094105;28;20089;-64
2021/11/29 09:50:29;;;;;;;50.42;24.85;;;;;;;15.33;58.83;94416.81;5093960;28;20470;-65
2021/11/29 09:52:55;;;;;;;6.03;1.60;;;;;;;14.97;58.95;94419.16;5093960;28;20055;-65
2021/11/29 09:55:25;;;;;;;8.32;1.70;;;;;;;14.62;59.57;94418.66;5094082;28;20111;-63
2021/11/29 09:57:52;;;;;;;7.78;1.90;;;;;;;14.52;61.33;94430.03;5094048;28;20028;-64
2021/11/29 10:00:22;;;;;;;10.95;1.60;;;;;;;14.51;62.17;94436.22;5094013;28;20016;-62
2021/11/29 10:02:49;;;;;;;6.00;1.90;;;;;;;14.38;62.03;94447.00;5093885;28;20032;-69
2021/11/29 10:05:16;;;;;;;9.23;2.08;;;;;;;14.43;63.36;94472.91;5093774;28;20324;-64
2021/11/29 10:07:47;;;;;;;8.40;1.50;;;;;;;14.49;62.04;94519.72;5093840;28;20073;-65
2021/11/29 10:10:19;;;;;;;7.65;1.45;;;;;;;13.82;66.42;94506.06;5093551;28;20462;-63
2021/11/29 10:12:47;;;;;;;3.75;1.38;;;;;;;13.55;66.17;94508.22;5093831;28;20580;-64
2021/11/29 10:15:37;;;;;;;5.22;1.30;;;;;;;13.28;67.81;94517.38;5093622;28;20053;-65
2021/11/29 10:18:09;;;;;;;5.68;1.35;;;;;;;13.20;69.19;94523.25;5093557;28;20038;-66
2021/11/29 10:20:55;;;;;;;2.95;1.40;;;;;;;13.02;70.77;94525.56;5093466;28;20044;-63
2021/11/29 10:23:31;;;;;;;2.00;1.05;;;;;;;13.20;74.16;94498.78;5093721;28;20381;-62
2021/11/29 10:25:59;;;;;;;3.28;1.20;;;;;;;13.60;74.46;94492.06;5093507;28;20027;-62
2021/11/29 10:28:33;;;;;;;4.80;1.50;;;;;;;13.91;75.27;94476.38;5093489;28;20664;-64
2021/11/29 10:31:16;;;;;;;3.08;1.30;;;;;;;14.01;73.18;94493.03;5093426;28;20095;-65
2021/11/29 10:33:45;;;;;;;2.70;1.83;;;;;;;13.97;72.58;94482.91;5093498;28;20024;-64
2021/11/29 10:36:13;;;;;;;4.05;1.58;;;;;;;13.98;71.55;94479.31;5093343;28;20036;-65
2021/11/29 10:38:41;;;;;;;2.95;1.45;;;;;;;14.01;72.09;94464.13;5093295;28;20474;-67
2021/11/29 10:41:08;;;;;;;4.28;1.48;;;;;;;14.06;71.55;94465.53;5093506;28;20028;-62
2021/11/29 10:43:42;;;;;;;4.03;1.60;;;;;;;13.93;68.97;94463.13;5093299;28;20020;-62
2021/11/29 10:46:20;;;;;;;5.80;1.88;;;;;;;13.85;68.45;94522.38;5093355;28;20514;-64
2021/11/29 10:48:48;;;;;;;2.03;1.40;;;;;;;13.87;69.09;94527.50;5093127;28;20047;-65
2021/11/29 10:51:16;;;;;;;5.07;1.40;;;;;;;13.69;66.81;94570.13;5093121;28;20437;-62
2021/11/29 10:54:03;;;;;;;1.30;1.20;;;;;;;13.42;67.09;94581.06;5093085;28;20474;-62
2021/11/29 10:56:32;;;;;;;2.10;1.55;;;;;;;13.18;70.05;94554.03;5093175;28;20032;-63
2021/11/29 10:59:01;;;;;;;3.42;1.40;;;;;;;12.92;69.45;94549.06;5093206;28;20024;-65
2021/11/29 11:01:35;;;;;;;6.68;1.70;;;;;;;12.85;69.53;94524.25;5093248;28;20047;-64
2021/11/29 11:04:01;;;;;;;4.25;1.80;;;;;;;12.80;72.20;94531.66;5093039;28;20119;-64
2021/11/29 11:06:34;;;;;;;3.03;1.52;;;;;;;12.83;72.49;94508.66;5093123;28;20488;-66
2021/11/29 11:09:00;;;;;;;2.17;1.40;;;;;;;12.93;72.71;94510.53;5093067;28;20032;-68
2021/11/29 11:11:28;;;;;;;5.00;1.63;;;;;;;12.91;70.81;94494.91;5093161;28;20020;-65
2021/11/29 11:13:58;;;;;;;11.63;6.22;;;;;;;12.88;68.97;94490.75;5093002;28;20038;-69
2021/11/29 11:16:55;;;;;;;5.15;1.88;;;;;;;13.12;66.72;94487.09;5092842;28;20427;-62
2021/11/29 11:19:34;;;;;;;1.60;0.98;;;;;;;13.29;64.22;94478.81;5092920;28;20550;-67
2021/11/29 11:22:31;;;;;;;2.58;0.93;;;;;;;13.37;61.90;94482.47;5095360;28;20048;-63
2021/11/29 11:24:58;;;;;;;2.85;0.88;;;;;;;13.47;58.54;94481.72;5093717;28;20044;-63